createdAt,value
2023-04-03T00:02:06.616Z,99.90
2023-04-03T00:04:36.914Z,99.90
2023-04-03T00:07:08.626Z,99.90
2023-04-03T00:09:40.905Z,99.90
2023-04-03T00:15:52.810Z,99.90
2023-04-03T00:25:06.462Z,99.90
2023-04-03T00:27:36.956Z,99.90
2023-04-03T00:30:09.765Z,99.90
2023-04-03T00:32:40.035Z,99.90
2023-04-03T00:35:12.870Z,99.90
2023-04-03T00:37:42.532Z,99.90
2023-04-03T00:40:16.613Z,99.90
2023-04-03T00:42:48.888Z,99.90
2023-04-03T00:45:32.863Z,99.90
2023-04-03T00:48:05.015Z,99.90
2023-04-03T00:50:36.559Z,99.90
2023-04-03T00:53:13.636Z,99.90
2023-04-03T00:55:49.603Z,99.90
2023-04-03T00:58:25.347Z,99.90
2023-04-03T01:01:02.596Z,99.90
2023-04-03T01:03:35.818Z,99.90
2023-04-03T01:06:08.863Z,99.90
2023-04-03T01:08:42.837Z,99.90
2023-04-03T01:11:16.106Z,99.90
2023-04-03T01:13:52.472Z,99.90
2023-04-03T01:16:38.898Z,99.90
2023-04-03T01:19:15.824Z,99.90
2023-04-03T01:22:08.663Z,99.90
2023-04-03T01:24:55.404Z,99.90
2023-04-03T01:27:35.282Z,99.90
2023-04-03T01:30:12.640Z,99.90
2023-04-03T01:32:56.831Z,99.90
2023-04-03T01:38:34.541Z,99.90
2023-04-03T01:44:39.662Z,99.90
2023-04-03T01:47:42.682Z,99.90
2023-04-03T01:50:38.006Z,99.90
2023-04-03T01:53:15.436Z,99.90
2023-04-03T01:55:48.103Z,99.90
2023-04-03T01:58:19.488Z,99.90
2023-04-03T02:00:51.886Z,99.90
2023-04-03T02:03:30.361Z,99.90
2023-04-03T02:06:05.009Z,99.90
2023-04-03T02:08:44.575Z,99.90
2023-04-03T02:11:19.404Z,99.90
2023-04-03T02:13:55.098Z,99.90
2023-04-03T02:16:28.391Z,99.90
2023-04-03T02:18:59.913Z,99.90
2023-04-03T02:21:37.435Z,99.90
2023-04-03T02:24:12.556Z,99.90
2023-04-03T02:27:03.893Z,99.90
2023-04-03T02:29:56.944Z,99.90
2023-04-03T02:32:50.421Z,99.90
2023-04-03T02:38:52.480Z,99.90
2023-04-03T02:41:44.252Z,99.90
2023-04-03T02:44:38.726Z,99.90
2023-04-03T02:47:15.335Z,99.90
2023-04-03T02:49:57.860Z,99.90
2023-04-03T02:52:32.455Z,99.90
2023-04-03T02:55:29.473Z,99.90
2023-04-03T02:58:08.603Z,99.90
2023-04-03T03:00:44.344Z,99.90
2023-04-03T03:03:32.023Z,99.90
2023-04-03T03:06:25.834Z,99.90
2023-04-03T03:09:16.144Z,99.90
2023-04-03T03:11:49.167Z,99.90
2023-04-03T03:14:24.775Z,99.90
2023-04-03T03:16:55.920Z,99.90
2023-04-03T03:19:27.145Z,99.90
2023-04-03T03:22:06.398Z,99.90
2023-04-03T03:24:40.235Z,99.90
2023-04-03T03:27:17.356Z,99.90
2023-04-03T03:29:48.610Z,99.90
2023-04-03T03:32:18.873Z,99.90
2023-04-03T03:34:50.697Z,99.90
2023-04-03T03:37:22.138Z,99.90
2023-04-03T03:39:52.294Z,99.90
2023-04-03T03:42:25.196Z,99.90
2023-04-03T03:44:57.489Z,99.90
2023-04-03T03:47:27.959Z,99.90
2023-04-03T03:50:00.217Z,99.90
2023-04-03T03:52:31.507Z,99.90
2023-04-03T03:55:03.791Z,99.90
2023-04-03T03:57:37.855Z,99.90
2023-04-03T04:00:13.173Z,99.90
2023-04-03T04:02:57.938Z,99.90
2023-04-03T04:05:37.621Z,99.90
2023-04-03T04:08:14.470Z,99.90
2023-04-03T04:10:54.332Z,99.90
2023-04-03T04:13:43.295Z,99.90
2023-04-03T04:16:25.160Z,99.90
2023-04-03T04:19:18.665Z,99.90
2023-04-03T04:21:58.203Z,99.90
2023-04-03T04:24:42.228Z,99.90
2023-04-03T04:27:29.827Z,99.90
2023-04-03T04:30:03.011Z,99.90
2023-04-03T04:32:39.530Z,99.90
2023-04-03T04:35:21.623Z,99.90
2023-04-03T04:37:57.345Z,99.90
2023-04-03T04:40:31.284Z,99.90
2023-04-03T04:43:04.639Z,99.90
2023-04-03T04:45:40.325Z,99.90
2023-04-03T04:48:10.865Z,99.90
2023-04-03T04:50:40.492Z,99.90
2023-04-03T04:53:11.250Z,99.90
2023-04-03T04:55:41.568Z,99.90
2023-04-03T04:58:12.684Z,99.90
2023-04-03T05:00:51.743Z,99.90
2023-04-03T05:03:21.702Z,99.90
2023-04-03T05:05:53.669Z,99.90
2023-04-03T05:08:24.155Z,99.90
2023-04-03T05:10:56.286Z,99.90
2023-04-03T05:13:29.755Z,99.90
2023-04-03T05:16:02.974Z,99.90
2023-04-03T05:18:33.535Z,99.90
2023-04-03T05:21:08.445Z,99.90
2023-04-03T05:23:38.863Z,99.90
2023-04-03T05:26:10.447Z,99.90
2023-04-03T05:28:43.057Z,99.90
2023-04-03T05:31:23.667Z,99.90
2023-04-03T05:34:06.781Z,99.90
2023-04-03T05:36:50.288Z,99.90
2023-04-03T05:39:21.426Z,99.90
2023-04-03T05:42:00.219Z,99.90
2023-04-03T05:44:31.980Z,99.90
2023-04-03T05:47:05.279Z,99.90
2023-04-03T05:49:34.888Z,99.90
2023-04-03T05:52:04.151Z,99.90
2023-04-03T05:54:35.587Z,99.90
2023-04-03T05:57:24.602Z,99.90
2023-04-03T05:59:55.119Z,99.90
2023-04-03T06:02:29.885Z,99.90
2023-04-03T06:05:00.207Z,99.90
2023-04-03T06:07:31.425Z,99.90
2023-04-03T06:10:01.038Z,99.90
2023-04-03T06:12:31.713Z,99.90
2023-04-03T06:15:02.222Z,99.90
2023-04-03T06:17:35.652Z,99.90
2023-04-03T06:20:04.980Z,99.90
2023-04-03T06:22:34.559Z,99.90
2023-04-03T06:25:07.354Z,99.90
2023-04-03T06:27:36.968Z,99.90
2023-04-03T06:30:08.294Z,99.90
2023-04-03T06:32:41.527Z,99.90
2023-04-03T06:35:11.296Z,99.90
2023-04-03T06:37:40.315Z,99.90
2023-04-03T06:40:13.827Z,99.90
2023-04-03T06:42:42.744Z,99.90
2023-04-03T06:45:15.153Z,99.90
2023-04-03T06:47:46.480Z,99.90
2023-04-03T06:50:16.583Z,99.90
2023-04-03T06:52:46.293Z,99.90
2023-04-03T06:55:15.416Z,99.90
2023-04-03T06:57:45.214Z,99.90
2023-04-03T07:00:17.362Z,99.90
2023-04-03T07:02:50.726Z,99.90
2023-04-03T07:05:22.100Z,99.90
2023-04-03T07:07:51.654Z,99.90
2023-04-03T07:10:21.568Z,99.90
2023-04-03T07:12:52.996Z,99.90
2023-04-03T07:15:29.066Z,99.90
2023-04-03T07:18:08.223Z,99.90
2023-04-03T07:20:43.376Z,99.90
2023-04-03T07:23:14.497Z,99.90
2023-04-03T07:25:56.075Z,99.90
2023-04-03T07:28:31.997Z,99.90
2023-04-03T07:31:05.581Z,99.90
2023-04-03T07:33:39.631Z,99.90
2023-04-03T07:36:11.225Z,99.90
2023-04-03T07:38:45.088Z,99.90
2023-04-03T07:41:19.495Z,99.90
2023-04-03T07:43:51.505Z,99.90
2023-04-03T07:46:26.772Z,99.90
2023-04-03T07:49:02.000Z,99.60
2023-04-03T07:51:31.617Z,99.50
2023-04-03T07:54:02.179Z,98.70
2023-04-03T07:56:33.990Z,97.80
2023-04-03T07:59:04.853Z,97.30
2023-04-03T08:01:42.045Z,97.30
2023-04-03T08:04:17.223Z,97.30
2023-04-03T08:06:53.603Z,96.40
2023-04-03T08:09:26.557Z,95.10
2023-04-03T08:11:55.903Z,93.90
2023-04-03T08:14:26.881Z,93.90
2023-04-03T08:17:01.296Z,93.60
2023-04-03T08:19:35.577Z,93.60
2023-04-03T08:22:12.538Z,92.10
2023-04-03T08:24:56.214Z,93.20
2023-04-03T08:27:33.144Z,90.70
2023-04-03T08:30:03.250Z,89.70
2023-04-03T08:32:40.081Z,89.50
2023-04-03T08:35:12.822Z,89.40
2023-04-03T08:37:48.357Z,88.90
2023-04-03T08:40:23.671Z,87.00
2023-04-03T08:43:06.050Z,86.00
2023-04-03T08:45:50.657Z,87.20
2023-04-03T08:48:25.164Z,87.30
2023-04-03T08:51:03.679Z,86.10
2023-04-03T08:53:36.988Z,84.00
2023-04-03T08:56:10.982Z,84.50
2023-04-03T08:58:48.815Z,82.20
2023-04-03T09:01:26.218Z,83.10
2023-04-03T09:04:00.732Z,83.30
2023-04-03T09:06:38.134Z,83.20
2023-04-03T09:09:27.969Z,82.40
2023-04-03T09:12:11.118Z,81.60
2023-04-03T09:14:47.560Z,81.20
2023-04-03T09:17:24.486Z,80.40
2023-04-03T09:20:01.298Z,79.80
2023-04-03T09:22:41.870Z,80.10
2023-04-03T09:25:18.332Z,78.60
2023-04-03T09:27:48.789Z,77.50
2023-04-03T09:30:19.719Z,76.40
2023-04-03T09:32:50.918Z,75.70
2023-04-03T09:35:36.186Z,76.20
2023-04-03T09:38:25.827Z,77.00
2023-04-03T09:41:08.944Z,74.80
2023-04-03T09:43:43.284Z,77.10
2023-04-03T09:46:34.530Z,75.70
2023-04-03T09:49:09.719Z,76.80
2023-04-03T09:51:43.470Z,74.30
2023-04-03T09:54:37.721Z,75.10
2023-04-03T09:57:14.784Z,74.80
2023-04-03T09:59:49.698Z,76.00
2023-04-03T10:02:34.344Z,74.00
2023-04-03T10:05:09.640Z,73.90
2023-04-03T10:07:46.435Z,72.60
2023-04-03T10:10:26.864Z,70.30
2023-04-03T10:13:10.555Z,70.10
2023-04-03T10:15:46.507Z,69.40
2023-04-03T10:18:31.702Z,68.10
2023-04-03T10:21:11.890Z,67.40
2023-04-03T10:23:53.064Z,67.10
2023-04-03T10:26:36.853Z,67.60
2023-04-03T10:29:15.577Z,66.40
2023-04-03T10:31:49.459Z,67.00
2023-04-03T10:34:26.519Z,68.10
2023-04-03T10:37:04.093Z,67.10
2023-04-03T10:39:41.229Z,67.30
2023-04-03T10:42:22.164Z,67.70
2023-04-03T10:45:21.929Z,66.80
2023-04-03T10:48:03.602Z,65.10
2023-04-03T10:50:42.642Z,68.70
2023-04-03T10:53:21.729Z,66.80
2023-04-03T10:56:01.068Z,65.40
2023-04-03T10:58:36.330Z,68.40
2023-04-03T11:01:12.091Z,68.40
2023-04-03T11:03:45.187Z,68.40
2023-04-03T11:06:17.794Z,64.50
2023-04-03T11:08:56.468Z,64.40
2023-04-03T11:11:32.114Z,65.20
2023-04-03T11:14:06.868Z,65.60
2023-04-03T11:16:51.017Z,65.40
2023-04-03T11:19:25.850Z,64.50
2023-04-03T11:21:59.517Z,64.30
2023-04-03T11:24:31.002Z,64.00
2023-04-03T11:27:02.766Z,64.60
2023-04-03T11:29:39.778Z,63.70
2023-04-03T11:32:18.861Z,63.90
2023-04-03T11:34:52.288Z,61.30
2023-04-03T11:37:30.027Z,63.10
2023-04-03T11:40:04.649Z,64.90
2023-04-03T11:42:38.944Z,66.00
2023-04-03T11:45:36.725Z,68.10
2023-04-03T11:48:23.321Z,65.50
2023-04-03T11:50:54.590Z,63.70
2023-04-03T11:53:37.944Z,64.10
2023-04-03T11:56:23.040Z,63.30
2023-04-03T11:59:21.939Z,62.00
2023-04-03T12:01:54.633Z,60.50
2023-04-03T12:04:26.143Z,61.80
2023-04-03T12:07:05.997Z,61.60
2023-04-03T12:09:55.686Z,59.40
2023-04-03T12:12:34.540Z,60.80
2023-04-03T12:15:52.541Z,62.10
2023-04-03T12:18:56.906Z,60.90
2023-04-03T12:21:27.797Z,58.90
2023-04-03T12:24:07.981Z,58.70
2023-04-03T12:26:48.716Z,60.30
2023-04-03T12:29:23.985Z,58.30
2023-04-03T12:32:07.766Z,56.20
2023-04-03T12:35:16.575Z,59.20
2023-04-03T12:38:22.797Z,56.70
2023-04-03T12:41:00.205Z,56.90
2023-04-03T12:43:55.870Z,59.10
2023-04-03T12:46:35.331Z,58.70
2023-04-03T12:49:20.656Z,56.80
2023-04-03T12:51:59.768Z,56.90
2023-04-03T17:02:13.046Z,54.60
